sensor_id;sensor_type;location;lat;lon;timestamp;P1;durP1;ratioP1;P2;durP2;ratioP2
38909;SDS011;24676;51.360;12.354;2023-01-04T00:02:41;5.38;;;1.10;;
38909;SDS011;24676;51.360;12.354;2023-01-04T00:05:26;2.60;;;1.50;;
38909;SDS011;24676;51.360;12.354;2023-01-04T00:08:10;1.77;;;1.40;;
38909;SDS011;24676;51.360;12.354;2023-01-04T00:11:01;0.93;;;0.93;;
38909;SDS011;24676;51.360;12.354;2023-01-04T00:13:48;3.40;;;1.05;;
38909;SDS011;24676;51.360;12.354;2023-01-04T00:16:34;1.10;;;1.10;;
38909;SDS011;24676;51.360;12.354;2023-01-04T00:19:18;2.72;;;1.33;;
38909;SDS011;24676;51.360;12.354;2023-01-04T00:22:02;3.50;;;1.63;;
38909;SDS011;24676;51.360;12.354;2023-01-04T00:24:46;3.70;;;1.85;;
38909;SDS011;24676;51.360;12.354;2023-01-04T00:27:30;2.10;;;1.08;;
38909;SDS011;24676;51.360;12.354;2023-01-04T00:30:15;2.05;;;1.58;;
38909;SDS011;24676;51.360;12.354;2023-01-04T00:32:59;1.50;;;1.15;;
38909;SDS011;24676;51.360;12.354;2023-01-04T00:35:44;3.50;;;1.85;;
38909;SDS011;24676;51.360;12.354;2023-01-04T00:38:28;4.55;;;1.15;;
38909;SDS011;24676;51.360;12.354;2023-01-04T00:41:13;2.00;;;1.45;;
38909;SDS011;24676;51.360;12.354;2023-01-04T00:43:57;1.63;;;1.47;;
38909;SDS011;24676;51.360;12.354;2023-01-04T00:46:45;1.70;;;1.50;;
38909;SDS011;24676;51.360;12.354;2023-01-04T00:52:15;1.20;;;0.90;;
38909;SDS011;24676;51.360;12.354;2023-01-04T01:00:29;2.40;;;1.97;;
38909;SDS011;24676;51.360;12.354;2023-01-04T01:03:14;5.25;;;2.10;;
38909;SDS011;24676;51.360;12.354;2023-01-04T01:06:01;1.92;;;1.10;;
38909;SDS011;24676;51.360;12.354;2023-01-04T01:08:47;5.00;;;2.45;;
38909;SDS011;24676;51.360;12.354;2023-01-04T01:11:31;2.92;;;1.73;;
38909;SDS011;24676;51.360;12.354;2023-01-04T01:14:19;3.40;;;1.75;;
38909;SDS011;24676;51.360;12.354;2023-01-04T01:17:05;3.08;;;2.72;;
38909;SDS011;24676;51.360;12.354;2023-01-04T01:19:49;1.73;;;1.58;;
38909;SDS011;24676;51.360;12.354;2023-01-04T01:22:34;2.08;;;1.65;;
38909;SDS011;24676;51.360;12.354;2023-01-04T01:25:18;1.75;;;1.45;;
38909;SDS011;24676;51.360;12.354;2023-01-04T01:28:03;1.58;;;1.23;;
38909;SDS011;24676;51.360;12.354;2023-01-04T01:30:47;1.98;;;1.75;;
38909;SDS011;24676;51.360;12.354;2023-01-04T01:33:31;1.98;;;1.85;;
38909;SDS011;24676;51.360;12.354;2023-01-04T01:36:15;1.98;;;1.65;;
38909;SDS011;24676;51.360;12.354;2023-01-04T01:39:01;1.52;;;1.08;;
38909;SDS011;24676;51.360;12.354;2023-01-04T01:41:45;1.80;;;1.63;;
38909;SDS011;24676;51.360;12.354;2023-01-04T01:47:35;1.70;;;1.17;;
38909;SDS011;24676;51.360;12.354;2023-01-04T01:50:25;2.33;;;1.90;;
38909;SDS011;24676;51.360;12.354;2023-01-04T01:53:17;3.17;;;1.88;;
38909;SDS011;24676;51.360;12.354;2023-01-04T01:56:04;1.27;;;1.15;;
38909;SDS011;24676;51.360;12.354;2023-01-04T01:58:51;3.78;;;1.85;;
38909;SDS011;24676;51.360;12.354;2023-01-04T02:01:38;2.10;;;1.02;;
38909;SDS011;24676;51.360;12.354;2023-01-04T02:04:23;3.67;;;1.98;;
38909;SDS011;24676;51.360;12.354;2023-01-04T02:07:08;2.70;;;1.58;;
38909;SDS011;24676;51.360;12.354;2023-01-04T02:09:55;2.67;;;1.60;;
38909;SDS011;24676;51.360;12.354;2023-01-04T02:12:40;2.28;;;2.08;;
38909;SDS011;24676;51.360;12.354;2023-01-04T02:15:26;2.15;;;1.83;;
38909;SDS011;24676;51.360;12.354;2023-01-04T02:18:20;1.93;;;1.83;;
38909;SDS011;24676;51.360;12.354;2023-01-04T02:21:20;1.73;;;1.45;;
38909;SDS011;24676;51.360;12.354;2023-01-04T02:36:12;5.90;;;3.22;;
38909;SDS011;24676;51.360;12.354;2023-01-04T02:39:19;3.88;;;2.67;;
38909;SDS011;24676;51.360;12.354;2023-01-04T02:42:31;2.60;;;1.65;;
38909;SDS011;24676;51.360;12.354;2023-01-04T02:45:51;2.60;;;1.55;;
38909;SDS011;24676;51.360;12.354;2023-01-04T02:48:40;1.55;;;1.45;;
38909;SDS011;24676;51.360;12.354;2023-01-04T02:51:43;0.77;;;0.77;;
38909;SDS011;24676;51.360;12.354;2023-01-04T02:54:28;3.33;;;2.75;;
38909;SDS011;24676;51.360;12.354;2023-01-04T02:57:23;4.38;;;2.15;;
38909;SDS011;24676;51.360;12.354;2023-01-04T03:00:17;8.48;;;2.63;;
38909;SDS011;24676;51.360;12.354;2023-01-04T03:03:17;1.48;;;0.98;;
38909;SDS011;24676;51.360;12.354;2023-01-04T03:06:31;6.68;;;2.05;;
38909;SDS011;24676;51.360;12.354;2023-01-04T03:09:25;2.88;;;1.60;;
38909;SDS011;24676;51.360;12.354;2023-01-04T03:12:18;1.85;;;1.20;;
38909;SDS011;24676;51.360;12.354;2023-01-04T03:15:26;1.67;;;1.58;;
38909;SDS011;24676;51.360;12.354;2023-01-04T03:18:15;1.98;;;1.52;;
38909;SDS011;24676;51.360;12.354;2023-01-04T03:21:04;7.65;;;1.70;;
38909;SDS011;24676;51.360;12.354;2023-01-04T03:23:53;2.05;;;1.63;;
38909;SDS011;24676;51.360;12.354;2023-01-04T03:27:00;3.42;;;2.25;;
38909;SDS011;24676;51.360;12.354;2023-01-04T03:33:15;1.85;;;1.48;;
38909;SDS011;24676;51.360;12.354;2023-01-04T03:36:26;1.92;;;1.45;;
38909;SDS011;24676;51.360;12.354;2023-01-04T03:39:20;3.92;;;3.28;;
38909;SDS011;24676;51.360;12.354;2023-01-04T03:45:53;2.10;;;1.13;;
38909;SDS011;24676;51.360;12.354;2023-01-04T03:49:13;3.38;;;1.17;;
38909;SDS011;24676;51.360;12.354;2023-01-04T03:52:03;1.63;;;1.42;;
38909;SDS011;24676;51.360;12.354;2023-01-04T03:54:50;1.70;;;1.60;;
38909;SDS011;24676;51.360;12.354;2023-01-04T03:57:36;4.75;;;1.45;;
38909;SDS011;24676;51.360;12.354;2023-01-04T04:00:21;1.75;;;1.65;;
38909;SDS011;24676;51.360;12.354;2023-01-04T04:03:06;2.05;;;1.83;;
38909;SDS011;24676;51.360;12.354;2023-01-04T04:05:51;0.80;;;0.80;;
38909;SDS011;24676;51.360;12.354;2023-01-04T04:08:54;2.50;;;1.30;;
38909;SDS011;24676;51.360;12.354;2023-01-04T04:11:38;1.90;;;0.85;;
38909;SDS011;24676;51.360;12.354;2023-01-04T04:14:23;1.48;;;1.15;;
38909;SDS011;24676;51.360;12.354;2023-01-04T04:17:06;6.47;;;1.23;;
38909;SDS011;24676;51.360;12.354;2023-01-04T04:19:51;3.70;;;1.88;;
38909;SDS011;24676;51.360;12.354;2023-01-04T04:22:35;1.95;;;1.38;;
38909;SDS011;24676;51.360;12.354;2023-01-04T04:25:19;0.95;;;0.95;;
38909;SDS011;24676;51.360;12.354;2023-01-04T04:28:04;1.77;;;1.45;;
38909;SDS011;24676;51.360;12.354;2023-01-04T04:30:48;0.82;;;0.77;;
38909;SDS011;24676;51.360;12.354;2023-01-04T04:33:33;4.22;;;1.75;;
38909;SDS011;24676;51.360;12.354;2023-01-04T04:36:17;3.70;;;1.00;;
38909;SDS011;24676;51.360;12.354;2023-01-04T04:39:01;2.25;;;1.25;;
38909;SDS011;24676;51.360;12.354;2023-01-04T04:41:46;2.35;;;1.55;;
38909;SDS011;24676;51.360;12.354;2023-01-04T04:44:32;1.35;;;1.15;;
38909;SDS011;24676;51.360;12.354;2023-01-04T04:47:17;1.10;;;1.00;;
38909;SDS011;24676;51.360;12.354;2023-01-04T04:50:01;1.65;;;1.45;;
38909;SDS011;24676;51.360;12.354;2023-01-04T04:52:46;2.50;;;1.40;;
38909;SDS011;24676;51.360;12.354;2023-01-04T04:55:30;1.55;;;1.00;;
38909;SDS011;24676;51.360;12.354;2023-01-04T04:58:14;3.88;;;1.70;;
38909;SDS011;24676;51.360;12.354;2023-01-04T05:00:59;4.80;;;1.17;;
38909;SDS011;24676;51.360;12.354;2023-01-04T05:03:43;1.83;;;0.98;;
38909;SDS011;24676;51.360;12.354;2023-01-04T05:06:27;2.40;;;0.70;;
38909;SDS011;24676;51.360;12.354;2023-01-04T05:09:12;2.50;;;0.60;;
38909;SDS011;24676;51.360;12.354;2023-01-04T05:11:56;0.75;;;0.75;;
38909;SDS011;24676;51.360;12.354;2023-01-04T05:17:43;6.63;;;1.17;;
38909;SDS011;24676;51.360;12.354;2023-01-04T05:20:27;2.92;;;0.85;;
38909;SDS011;24676;51.360;12.354;2023-01-04T05:23:12;2.42;;;1.13;;
38909;SDS011;24676;51.360;12.354;2023-01-04T05:25:58;0.60;;;0.60;;
38909;SDS011;24676;51.360;12.354;2023-01-04T05:28:44;1.65;;;0.90;;
38909;SDS011;24676;51.360;12.354;2023-01-04T05:31:29;1.33;;;1.00;;
38909;SDS011;24676;51.360;12.354;2023-01-04T05:34:13;3.70;;;1.30;;
38909;SDS011;24676;51.360;12.354;2023-01-04T05:36:57;0.68;;;0.50;;
38909;SDS011;24676;51.360;12.354;2023-01-04T05:39:41;1.48;;;1.00;;
38909;SDS011;24676;51.360;12.354;2023-01-04T05:42:25;1.38;;;0.80;;
38909;SDS011;24676;51.360;12.354;2023-01-04T05:45:10;0.85;;;0.85;;
38909;SDS011;24676;51.360;12.354;2023-01-04T05:47:56;0.80;;;0.68;;
38909;SDS011;24676;51.360;12.354;2023-01-04T05:50:40;0.60;;;0.60;;
38909;SDS011;24676;51.360;12.354;2023-01-04T05:53:24;2.55;;;0.90;;
38909;SDS011;24676;51.360;12.354;2023-01-04T05:56:08;1.25;;;1.15;;
38909;SDS011;24676;51.360;12.354;2023-01-04T05:58:53;1.60;;;1.50;;
38909;SDS011;24676;51.360;12.354;2023-01-04T06:01:37;1.02;;;1.02;;
38909;SDS011;24676;51.360;12.354;2023-01-04T06:04:21;0.82;;;0.80;;
38909;SDS011;24676;51.360;12.354;2023-01-04T06:07:06;4.88;;;0.80;;
38909;SDS011;24676;51.360;12.354;2023-01-04T06:09:50;1.80;;;1.13;;
38909;SDS011;24676;51.360;12.354;2023-01-04T06:12:34;0.65;;;0.63;;
38909;SDS011;24676;51.360;12.354;2023-01-04T06:15:19;2.03;;;1.92;;
38909;SDS011;24676;51.360;12.354;2023-01-04T06:18:03;6.03;;;1.30;;
38909;SDS011;24676;51.360;12.354;2023-01-04T06:20:49;1.90;;;1.73;;
38909;SDS011;24676;51.360;12.354;2023-01-04T06:23:34;1.70;;;0.90;;
38909;SDS011;24676;51.360;12.354;2023-01-04T06:26:18;7.43;;;1.30;;
38909;SDS011;24676;51.360;12.354;2023-01-04T06:29:02;2.00;;;1.00;;
38909;SDS011;24676;51.360;12.354;2023-01-04T06:31:47;3.08;;;1.08;;
38909;SDS011;24676;51.360;12.354;2023-01-04T06:34:31;1.13;;;0.70;;
38909;SDS011;24676;51.360;12.354;2023-01-04T06:37:15;3.10;;;2.38;;
38909;SDS011;24676;51.360;12.354;2023-01-04T06:40:00;1.75;;;0.80;;
38909;SDS011;24676;51.360;12.354;2023-01-04T06:42:44;2.08;;;1.13;;
38909;SDS011;24676;51.360;12.354;2023-01-04T06:45:28;2.72;;;1.58;;
38909;SDS011;24676;51.360;12.354;2023-01-04T06:48:13;3.13;;;1.77;;
38909;SDS011;24676;51.360;12.354;2023-01-04T06:50:57;1.83;;;1.23;;
38909;SDS011;24676;51.360;12.354;2023-01-04T06:53:42;3.58;;;1.20;;
38909;SDS011;24676;51.360;12.354;2023-01-04T06:56:26;1.42;;;0.93;;
38909;SDS011;24676;51.360;12.354;2023-01-04T06:59:10;2.17;;;0.95;;
38909;SDS011;24676;51.360;12.354;2023-01-04T07:01:55;1.83;;;1.33;;
38909;SDS011;24676;51.360;12.354;2023-01-04T07:04:39;1.42;;;1.10;;
38909;SDS011;24676;51.360;12.354;2023-01-04T07:07:24;2.10;;;1.88;;
38909;SDS011;24676;51.360;12.354;2023-01-04T07:10:08;0.68;;;0.68;;
38909;SDS011;24676;51.360;12.354;2023-01-04T07:12:52;1.50;;;1.25;;
38909;SDS011;24676;51.360;12.354;2023-01-04T07:15:37;6.72;;;1.70;;
38909;SDS011;24676;51.360;12.354;2023-01-04T07:18:21;2.17;;;1.08;;
38909;SDS011;24676;51.360;12.354;2023-01-04T07:21:06;1.48;;;1.45;;
38909;SDS011;24676;51.360;12.354;2023-01-04T07:23:50;1.48;;;0.73;;
38909;SDS011;24676;51.360;12.354;2023-01-04T07:26:35;2.85;;;1.08;;
38909;SDS011;24676;51.360;12.354;2023-01-04T07:29:19;2.95;;;1.63;;
38909;SDS011;24676;51.360;12.354;2023-01-04T07:32:05;1.70;;;1.00;;
38909;SDS011;24676;51.360;12.354;2023-01-04T07:34:49;1.38;;;1.27;;
38909;SDS011;24676;51.360;12.354;2023-01-04T07:37:33;2.60;;;0.90;;
38909;SDS011;24676;51.360;12.354;2023-01-04T07:40:17;0.95;;;0.85;;
38909;SDS011;24676;51.360;12.354;2023-01-04T07:43:01;6.93;;;1.55;;
38909;SDS011;24676;51.360;12.354;2023-01-04T07:45:46;2.78;;;1.77;;
38909;SDS011;24676;51.360;12.354;2023-01-04T07:48:31;1.08;;;0.88;;
38909;SDS011;24676;51.360;12.354;2023-01-04T07:51:15;0.65;;;0.65;;
38909;SDS011;24676;51.360;12.354;2023-01-04T07:54:00;2.20;;;1.23;;
38909;SDS011;24676;51.360;12.354;2023-01-04T07:56:44;0.88;;;0.73;;
38909;SDS011;24676;51.360;12.354;2023-01-04T07:59:29;1.73;;;1.63;;
38909;SDS011;24676;51.360;12.354;2023-01-04T08:02:14;1.73;;;1.27;;
38909;SDS011;24676;51.360;12.354;2023-01-04T08:04:58;1.13;;;0.82;;
38909;SDS011;24676;51.360;12.354;2023-01-04T08:07:43;1.63;;;1.15;;
38909;SDS011;24676;51.360;12.354;2023-01-04T08:10:27;1.75;;;1.25;;
38909;SDS011;24676;51.360;12.354;2023-01-04T08:13:11;1.98;;;1.17;;
38909;SDS011;24676;51.360;12.354;2023-01-04T08:15:56;1.25;;;0.80;;
38909;SDS011;24676;51.360;12.354;2023-01-04T08:18:40;1.13;;;1.02;;
38909;SDS011;24676;51.360;12.354;2023-01-04T08:21:25;2.75;;;1.38;;
38909;SDS011;24676;51.360;12.354;2023-01-04T08:24:10;1.77;;;1.20;;
38909;SDS011;24676;51.360;12.354;2023-01-04T08:26:56;1.98;;;1.77;;
38909;SDS011;24676;51.360;12.354;2023-01-04T08:29:41;2.83;;;0.77;;
38909;SDS011;24676;51.360;12.354;2023-01-04T08:32:25;1.42;;;0.70;;
38909;SDS011;24676;51.360;12.354;2023-01-04T08:35:09;4.75;;;1.40;;
38909;SDS011;24676;51.360;12.354;2023-01-04T08:37:54;0.50;;;0.50;;
38909;SDS011;24676;51.360;12.354;2023-01-04T08:40:38;1.25;;;0.50;;
38909;SDS011;24676;51.360;12.354;2023-01-04T08:43:22;0.93;;;0.93;;
38909;SDS011;24676;51.360;12.354;2023-01-04T08:46:06;3.20;;;0.85;;
38909;SDS011;24676;51.360;12.354;2023-01-04T08:48:51;1.10;;;0.77;;
38909;SDS011;24676;51.360;12.354;2023-01-04T08:51:35;1.08;;;0.70;;
38909;SDS011;24676;51.360;12.354;2023-01-04T08:54:19;1.10;;;0.63;;
38909;SDS011;24676;51.360;12.354;2023-01-04T08:57:05;2.03;;;1.05;;
38909;SDS011;24676;51.360;12.354;2023-01-04T08:59:49;1.98;;;1.15;;
38909;SDS011;24676;51.360;12.354;2023-01-04T09:02:33;2.00;;;1.90;;
38909;SDS011;24676;51.360;12.354;2023-01-04T09:05:17;0.32;;;0.25;;
38909;SDS011;24676;51.360;12.354;2023-01-04T09:08:02;1.00;;;0.80;;
38909;SDS011;24676;51.360;12.354;2023-01-04T09:10:46;1.48;;;0.60;;
38909;SDS011;24676;51.360;12.354;2023-01-04T09:13:31;2.08;;;1.27;;
38909;SDS011;24676;51.360;12.354;2023-01-04T09:16:17;0.65;;;0.65;;
38909;SDS011;24676;51.360;12.354;2023-01-04T09:19:03;1.00;;;0.63;;
38909;SDS011;24676;51.360;12.354;2023-01-04T09:21:48;2.13;;;0.80;;
38909;SDS011;24676;51.360;12.354;2023-01-04T09:24:32;5.78;;;1.17;;
38909;SDS011;24676;51.360;12.354;2023-01-04T09:27:17;0.68;;;0.50;;
38909;SDS011;24676;51.360;12.354;2023-01-04T09:30:01;0.32;;;0.32;;
38909;SDS011;24676;51.360;12.354;2023-01-04T09:32:46;1.27;;;0.73;;
38909;SDS011;24676;51.360;12.354;2023-01-04T09:35:30;0.40;;;0.40;;
38909;SDS011;24676;51.360;12.354;2023-01-04T09:38:15;2.70;;;0.77;;
38909;SDS011;24676;51.360;12.354;2023-01-04T09:46:39;1.35;;;0.90;;
38909;SDS011;24676;51.360;12.354;2023-01-04T09:49:43;0.32;;;0.32;;
38909;SDS011;24676;51.360;12.354;2023-01-04T09:59:15;0.95;;;0.60;;
38909;SDS011;24676;51.360;12.354;2023-01-04T10:02:07;0.57;;;0.43;;
38909;SDS011;24676;51.360;12.354;2023-01-04T10:07:41;0.30;;;0.17;;
38909;SDS011;24676;51.360;12.354;2023-01-04T10:26:13;1.27;;;0.73;;
38909;SDS011;24676;51.360;12.354;2023-01-04T10:35:23;0.98;;;0.88;;
38909;SDS011;24676;51.360;12.354;2023-01-04T10:38:16;0.65;;;0.63;;
38909;SDS011;24676;51.360;12.354;2023-01-04T10:41:08;0.95;;;0.40;;
38909;SDS011;24676;51.360;12.354;2023-01-04T10:49:56;0.80;;;0.43;;
38909;SDS011;24676;51.360;12.354;2023-01-04T10:52:45;0.98;;;0.43;;
38909;SDS011;24676;51.360;12.354;2023-01-04T10:58:44;0.20;;;0.20;;
38909;SDS011;24676;51.360;12.354;2023-01-04T11:01:41;0.55;;;0.35;;
38909;SDS011;24676;51.360;12.354;2023-01-04T11:04:39;2.08;;;0.35;;
38909;SDS011;24676;51.360;12.354;2023-01-04T11:07:36;0.20;;;0.20;;
38909;SDS011;24676;51.360;12.354;2023-01-04T11:10:27;0.38;;;0.38;;
38909;SDS011;24676;51.360;12.354;2023-01-04T11:13:17;0.65;;;0.20;;
38909;SDS011;24676;51.360;12.354;2023-01-04T11:16:01;0.20;;;0.20;;
38909;SDS011;24676;51.360;12.354;2023-01-04T11:18:47;0.20;;;0.20;;
38909;SDS011;24676;51.360;12.354;2023-01-04T11:21:35;1.08;;;0.47;;
38909;SDS011;24676;51.360;12.354;2023-01-04T11:24:30;1.35;;;0.50;;
38909;SDS011;24676;51.360;12.354;2023-01-04T11:27:16;0.70;;;0.68;;
38909;SDS011;24676;51.360;12.354;2023-01-04T11:30:12;0.47;;;0.30;;
38909;SDS011;24676;51.360;12.354;2023-01-04T11:33:14;1.50;;;1.40;;
38909;SDS011;24676;51.360;12.354;2023-01-04T11:36:01;1.13;;;0.17;;
38909;SDS011;24676;51.360;12.354;2023-01-04T11:38:53;0.43;;;0.43;;
38909;SDS011;24676;51.360;12.354;2023-01-04T11:41:38;6.40;;;0.55;;
38909;SDS011;24676;51.360;12.354;2023-01-04T11:44:24;0.25;;;0.20;;
38909;SDS011;24676;51.360;12.354;2023-01-04T11:50:03;0.75;;;0.63;;
38909;SDS011;24676;51.360;12.354;2023-01-04T11:52:48;0.20;;;0.20;;
38909;SDS011;24676;51.360;12.354;2023-01-04T11:55:32;0.47;;;0.32;;
38909;SDS011;24676;51.360;12.354;2023-01-04T11:58:20;0.28;;;0.28;;
38909;SDS011;24676;51.360;12.354;2023-01-04T12:01:05;0.32;;;0.28;;
38909;SDS011;24676;51.360;12.354;2023-01-04T12:03:49;4.25;;;1.42;;
38909;SDS011;24676;51.360;12.354;2023-01-04T12:06:38;1.08;;;0.73;;
38909;SDS011;24676;51.360;12.354;2023-01-04T12:09:28;1.45;;;0.45;;
38909;SDS011;24676;51.360;12.354;2023-01-04T12:12:13;1.33;;;0.50;;
38909;SDS011;24676;51.360;12.354;2023-01-04T12:15:02;0.47;;;0.30;;
38909;SDS011;24676;51.360;12.354;2023-01-04T12:17:57;0.38;;;0.30;;
38909;SDS011;24676;51.360;12.354;2023-01-04T12:20:47;1.02;;;0.65;;
38909;SDS011;24676;51.360;12.354;2023-01-04T12:23:31;0.20;;;0.20;;
38909;SDS011;24676;51.360;12.354;2023-01-04T12:26:16;0.63;;;0.52;;
38909;SDS011;24676;51.360;12.354;2023-01-04T12:29:30;0.85;;;0.57;;
38909;SDS011;24676;51.360;12.354;2023-01-04T12:50:22;0.20;;;0.20;;
38909;SDS011;24676;51.360;12.354;2023-01-04T12:53:11;2.45;;;0.50;;
38909;SDS011;24676;51.360;12.354;2023-01-04T13:02:46;0.17;;;0.17;;
38909;SDS011;24676;51.360;12.354;2023-01-04T13:05:54;0.25;;;0.10;;
38909;SDS011;24676;51.360;12.354;2023-01-04T13:08:43;0.17;;;0.15;;
38909;SDS011;24676;51.360;12.354;2023-01-04T13:14:45;0.32;;;0.32;;
38909;SDS011;24676;51.360;12.354;2023-01-04T13:17:37;0.10;;;0.10;;
38909;SDS011;24676;51.360;12.354;2023-01-04T13:20:22;0.15;;;0.15;;
38909;SDS011;24676;51.360;12.354;2023-01-04T13:23:08;0.47;;;0.47;;
38909;SDS011;24676;51.360;12.354;2023-01-04T13:25:55;0.28;;;0.28;;
38909;SDS011;24676;51.360;12.354;2023-01-04T13:32:10;1.77;;;0.52;;
38909;SDS011;24676;51.360;12.354;2023-01-04T13:35:10;0.57;;;0.22;;
38909;SDS011;24676;51.360;12.354;2023-01-04T13:37:56;0.10;;;0.10;;
38909;SDS011;24676;51.360;12.354;2023-01-04T13:40:44;0.30;;;0.30;;
38909;SDS011;24676;51.360;12.354;2023-01-04T13:44:03;0.47;;;0.13;;
38909;SDS011;24676;51.360;12.354;2023-01-04T13:46:48;0.55;;;0.32;;
38909;SDS011;24676;51.360;12.354;2023-01-04T13:49:37;0.13;;;0.13;;
38909;SDS011;24676;51.360;12.354;2023-01-04T13:52:23;0.80;;;0.10;;
38909;SDS011;24676;51.360;12.354;2023-01-04T13:55:09;0.55;;;0.20;;
38909;SDS011;24676;51.360;12.354;2023-01-04T13:58:16;0.95;;;0.20;;
38909;SDS011;24676;51.360;12.354;2023-01-04T14:01:04;0.55;;;0.20;;
38909;SDS011;24676;51.360;12.354;2023-01-04T14:03:56;0.43;;;0.43;;
38909;SDS011;24676;51.360;12.354;2023-01-04T14:06:48;0.00;;;0.00;;
38909;SDS011;24676;51.360;12.354;2023-01-04T14:09:35;0.65;;;0.65;;
38909;SDS011;24676;51.360;12.354;2023-01-04T14:12:27;0.20;;;0.20;;
38909;SDS011;24676;51.360;12.354;2023-01-04T14:15:17;0.13;;;0.10;;
38909;SDS011;24676;51.360;12.354;2023-01-04T14:18:20;0.60;;;0.55;;
38909;SDS011;24676;51.360;12.354;2023-01-04T14:21:18;0.08;;;0.08;;
38909;SDS011;24676;51.360;12.354;2023-01-04T14:24:31;0.40;;;0.40;;
38909;SDS011;24676;51.360;12.354;2023-01-04T14:41:40;0.22;;;0.10;;
38909;SDS011;24676;51.360;12.354;2023-01-04T14:44:38;0.10;;;0.10;;
38909;SDS011;24676;51.360;12.354;2023-01-04T14:47:24;0.00;;;0.00;;
38909;SDS011;24676;51.360;12.354;2023-01-04T14:50:08;0.00;;;0.00;;
38909;SDS011;24676;51.360;12.354;2023-01-04T14:52:52;0.10;;;0.10;;
38909;SDS011;24676;51.360;12.354;2023-01-04T14:55:37;0.03;;;0.00;;
38909;SDS011;24676;51.360;12.354;2023-01-04T14:58:21;0.10;;;0.10;;
38909;SDS011;24676;51.360;12.354;2023-01-04T15:01:05;0.20;;;0.20;;
38909;SDS011;24676;51.360;12.354;2023-01-04T15:03:50;0.20;;;0.20;;
38909;SDS011;24676;51.360;12.354;2023-01-04T15:06:34;0.22;;;0.17;;
38909;SDS011;24676;51.360;12.354;2023-01-04T15:09:19;0.25;;;0.20;;
38909;SDS011;24676;51.360;12.354;2023-01-04T15:12:03;0.65;;;0.03;;
38909;SDS011;24676;51.360;12.354;2023-01-04T15:14:48;1.08;;;0.22;;
38909;SDS011;24676;51.360;12.354;2023-01-04T15:17:32;0.10;;;0.10;;
38909;SDS011;24676;51.360;12.354;2023-01-04T15:20:17;0.43;;;0.32;;
38909;SDS011;24676;51.360;12.354;2023-01-04T15:23:01;0.20;;;0.20;;
38909;SDS011;24676;51.360;12.354;2023-01-04T15:25:45;0.20;;;0.20;;
38909;SDS011;24676;51.360;12.354;2023-01-04T15:28:29;0.15;;;0.15;;
38909;SDS011;24676;51.360;12.354;2023-01-04T15:31:13;0.17;;;0.08;;
38909;SDS011;24676;51.360;12.354;2023-01-04T15:33:58;0.10;;;0.10;;
38909;SDS011;24676;51.360;12.354;2023-01-04T15:36:42;0.65;;;0.30;;
38909;SDS011;24676;51.360;12.354;2023-01-04T15:39:26;0.63;;;0.20;;
38909;SDS011;24676;51.360;12.354;2023-01-04T15:42:11;0.47;;;0.47;;
38909;SDS011;24676;51.360;12.354;2023-01-04T15:45:14;0.47;;;0.47;;
38909;SDS011;24676;51.360;12.354;2023-01-04T15:47:59;3.35;;;0.47;;
38909;SDS011;24676;51.360;12.354;2023-01-04T15:50:48;0.35;;;0.20;;
38909;SDS011;24676;51.360;12.354;2023-01-04T15:53:33;0.10;;;0.10;;
38909;SDS011;24676;51.360;12.354;2023-01-04T15:56:17;0.40;;;0.25;;
38909;SDS011;24676;51.360;12.354;2023-01-04T15:59:03;1.27;;;0.15;;
38909;SDS011;24676;51.360;12.354;2023-01-04T16:01:47;0.32;;;0.10;;
38909;SDS011;24676;51.360;12.354;2023-01-04T16:04:31;0.22;;;0.10;;
38909;SDS011;24676;51.360;12.354;2023-01-04T16:07:17;0.28;;;0.28;;
38909;SDS011;24676;51.360;12.354;2023-01-04T16:10:01;0.35;;;0.32;;
38909;SDS011;24676;51.360;12.354;2023-01-04T16:12:46;0.20;;;0.20;;
38909;SDS011;24676;51.360;12.354;2023-01-04T16:15:30;0.10;;;0.10;;
38909;SDS011;24676;51.360;12.354;2023-01-04T16:18:15;0.10;;;0.10;;
38909;SDS011;24676;51.360;12.354;2023-01-04T16:20:59;0.00;;;0.00;;
38909;SDS011;24676;51.360;12.354;2023-01-04T16:23:47;1.08;;;0.32;;
38909;SDS011;24676;51.360;12.354;2023-01-04T16:26:33;0.10;;;0.10;;
38909;SDS011;24676;51.360;12.354;2023-01-04T16:29:17;0.28;;;0.28;;
38909;SDS011;24676;51.360;12.354;2023-01-04T16:32:03;0.20;;;0.20;;
38909;SDS011;24676;51.360;12.354;2023-01-04T16:34:48;0.00;;;0.00;;
38909;SDS011;24676;51.360;12.354;2023-01-04T16:37:33;0.38;;;0.10;;
38909;SDS011;24676;51.360;12.354;2023-01-04T16:40:17;0.13;;;0.13;;
38909;SDS011;24676;51.360;12.354;2023-01-04T16:43:02;0.75;;;0.73;;
38909;SDS011;24676;51.360;12.354;2023-01-04T16:45:46;0.75;;;0.28;;
38909;SDS011;24676;51.360;12.354;2023-01-04T16:48:31;0.93;;;0.25;;
38909;SDS011;24676;51.360;12.354;2023-01-04T16:51:16;0.28;;;0.28;;
38909;SDS011;24676;51.360;12.354;2023-01-04T16:54:01;0.00;;;0.00;;
38909;SDS011;24676;51.360;12.354;2023-01-04T16:56:46;0.40;;;0.20;;
38909;SDS011;24676;51.360;12.354;2023-01-04T16:59:31;0.57;;;0.35;;
38909;SDS011;24676;51.360;12.354;2023-01-04T17:02:15;0.05;;;0.05;;
38909;SDS011;24676;51.360;12.354;2023-01-04T17:04:59;1.95;;;0.17;;
38909;SDS011;24676;51.360;12.354;2023-01-04T17:07:44;0.52;;;0.40;;
38909;SDS011;24676;51.360;12.354;2023-01-04T17:10:28;0.15;;;0.15;;
38909;SDS011;24676;51.360;12.354;2023-01-04T17:13:12;1.27;;;0.05;;
38909;SDS011;24676;51.360;12.354;2023-01-04T17:15:57;0.75;;;0.20;;
38909;SDS011;24676;51.360;12.354;2023-01-04T17:18:43;0.10;;;0.10;;
38909;SDS011;24676;51.360;12.354;2023-01-04T17:21:27;0.20;;;0.03;;
38909;SDS011;24676;51.360;12.354;2023-01-04T17:24:13;0.63;;;0.35;;
38909;SDS011;24676;51.360;12.354;2023-01-04T17:26:57;0.13;;;0.13;;
38909;SDS011;24676;51.360;12.354;2023-01-04T17:29:41;0.35;;;0.20;;
38909;SDS011;24676;51.360;12.354;2023-01-04T17:32:26;0.15;;;0.15;;
38909;SDS011;24676;51.360;12.354;2023-01-04T17:35:10;0.10;;;0.00;;
38909;SDS011;24676;51.360;12.354;2023-01-04T17:37:55;0.20;;;0.17;;
38909;SDS011;24676;51.360;12.354;2023-01-04T17:40:39;0.10;;;0.00;;
38909;SDS011;24676;51.360;12.354;2023-01-04T17:43:25;0.10;;;0.10;;
38909;SDS011;24676;51.360;12.354;2023-01-04T17:46:11;1.02;;;0.40;;
38909;SDS011;24676;51.360;12.354;2023-01-04T17:48:57;0.40;;;0.20;;
38909;SDS011;24676;51.360;12.354;2023-01-04T17:51:44;0.10;;;0.10;;
38909;SDS011;24676;51.360;12.354;2023-01-04T17:54:28;0.25;;;0.20;;
38909;SDS011;24676;51.360;12.354;2023-01-04T17:57:13;0.00;;;0.00;;
38909;SDS011;24676;51.360;12.354;2023-01-04T17:59:57;0.45;;;0.45;;
38909;SDS011;24676;51.360;12.354;2023-01-04T18:02:42;0.73;;;0.40;;
38909;SDS011;24676;51.360;12.354;2023-01-04T18:05:26;1.00;;;0.75;;
38909;SDS011;24676;51.360;12.354;2023-01-04T18:08:11;0.22;;;0.22;;
38909;SDS011;24676;51.360;12.354;2023-01-04T18:10:55;0.00;;;0.00;;
38909;SDS011;24676;51.360;12.354;2023-01-04T18:13:41;0.05;;;0.05;;
38909;SDS011;24676;51.360;12.354;2023-01-04T18:16:27;0.10;;;0.10;;
38909;SDS011;24676;51.360;12.354;2023-01-04T18:19:12;0.20;;;0.20;;
38909;SDS011;24676;51.360;12.354;2023-01-04T18:21:56;0.00;;;0.00;;
38909;SDS011;24676;51.360;12.354;2023-01-04T18:24:42;0.10;;;0.10;;
38909;SDS011;24676;51.360;12.354;2023-01-04T18:27:26;0.00;;;0.00;;
38909;SDS011;24676;51.360;12.354;2023-01-04T18:30:10;0.00;;;0.00;;
38909;SDS011;24676;51.360;12.354;2023-01-04T18:32:55;0.28;;;0.28;;
38909;SDS011;24676;51.360;12.354;2023-01-04T18:35:39;2.05;;;0.10;;
38909;SDS011;24676;51.360;12.354;2023-01-04T18:38:24;0.00;;;0.00;;
38909;SDS011;24676;51.360;12.354;2023-01-04T18:41:08;0.25;;;0.10;;